sensor_id;sensor_type;location;lat;lon;timestamp;pressure;altitude;pressure_sealevel;temperature;humidity
82575;BME280;72260;65.870;13.210;2024-03-02T00:00:37;100051.72;;;4.88;62.12
82575;BME280;72260;65.870;13.210;2024-03-02T00:03:04;100061.28;;;4.89;62.31
82575;BME280;72260;65.870;13.210;2024-03-02T00:05:29;100059.31;;;4.94;62.07
82575;BME280;72260;65.870;13.210;2024-03-02T00:07:56;100056.31;;;5.02;61.59
82575;BME280;72260;65.870;13.210;2024-03-02T00:10:26;100043.28;;;5.00;61.77
82575;BME280;72260;65.870;13.210;2024-03-02T00:12:57;100049.94;;;5.07;62.08
82575;BME280;72260;65.870;13.210;2024-03-02T00:15:47;100052.78;;;5.03;61.71
82575;BME280;72260;65.870;13.210;2024-03-02T00:18:18;100049.44;;;4.99;61.56
82575;BME280;72260;65.870;13.210;2024-03-02T00:20:44;100045.91;;;5.00;61.57
82575;BME280;72260;65.870;13.210;2024-03-02T00:23:14;100041.56;;;4.82;62.16
82575;BME280;72260;65.870;13.210;2024-03-02T00:25:43;100056.94;;;4.71;62.69
82575;BME280;72260;65.870;13.210;2024-03-02T00:28:47;100049.78;;;4.75;62.29
82575;BME280;72260;65.870;13.210;2024-03-02T00:31:15;100054.66;;;4.82;62.28
82575;BME280;72260;65.870;13.210;2024-03-02T00:33:43;100045.34;;;4.77;62.56
82575;BME280;72260;65.870;13.210;2024-03-02T00:36:10;100064.09;;;4.86;62.45
82575;BME280;72260;65.870;13.210;2024-03-02T00:38:45;100053.34;;;4.91;62.07
82575;BME280;72260;65.870;13.210;2024-03-02T00:41:25;100069.19;;;5.06;61.87
82575;BME280;72260;65.870;13.210;2024-03-02T00:43:59;100077.13;;;5.05;61.36
82575;BME280;72260;65.870;13.210;2024-03-02T00:46:27;100079.97;;;5.00;62.02
82575;BME280;72260;65.870;13.210;2024-03-02T00:48:57;100079.69;;;5.06;61.46
82575;BME280;72260;65.870;13.210;2024-03-02T00:51:25;100077.97;;;5.05;61.75
82575;BME280;72260;65.870;13.210;2024-03-02T00:53:52;100084.56;;;4.95;61.96
82575;BME280;72260;65.870;13.210;2024-03-02T00:56:18;100099.22;;;4.99;61.92
82575;BME280;72260;65.870;13.210;2024-03-02T00:58:44;100095.06;;;4.95;62.34
82575;BME280;72260;65.870;13.210;2024-03-02T01:01:10;100112.19;;;5.02;61.62
82575;BME280;72260;65.870;13.210;2024-03-02T01:03:35;100113.53;;;4.92;62.56
82575;BME280;72260;65.870;13.210;2024-03-02T01:06:03;100123.31;;;4.89;62.58
82575;BME280;72260;65.870;13.210;2024-03-02T01:08:28;100113.84;;;4.86;63.09
82575;BME280;72260;65.870;13.210;2024-03-02T01:10:54;100108.75;;;4.83;63.05
82575;BME280;72260;65.870;13.210;2024-03-02T01:13:23;100126.44;;;4.78;63.12
82575;BME280;72260;65.870;13.210;2024-03-02T01:15:49;100129.19;;;4.94;61.35
82575;BME280;72260;65.870;13.210;2024-03-02T01:18:15;100127.47;;;4.93;61.04
82575;BME280;72260;65.870;13.210;2024-03-02T01:20:40;100118.00;;;4.90;61.37
82575;BME280;72260;65.870;13.210;2024-03-02T01:23:06;100120.41;;;4.95;61.41
82575;BME280;72260;65.870;13.210;2024-03-02T01:25:32;100139.03;;;4.89;61.76
82575;BME280;72260;65.870;13.210;2024-03-02T01:27:57;100131.34;;;4.86;61.71
82575;BME280;72260;65.870;13.210;2024-03-02T01:30:23;100117.59;;;4.81;61.45
82575;BME280;72260;65.870;13.210;2024-03-02T01:32:48;100119.91;;;4.68;62.39
82575;BME280;72260;65.870;13.210;2024-03-02T01:35:14;100120.69;;;4.70;62.12
82575;BME280;72260;65.870;13.210;2024-03-02T01:37:41;100120.69;;;4.70;61.92
82575;BME280;72260;65.870;13.210;2024-03-02T01:40:07;100116.31;;;4.70;61.47
82575;BME280;72260;65.870;13.210;2024-03-02T01:42:38;100136.91;;;4.78;61.98
82575;BME280;72260;65.870;13.210;2024-03-02T01:45:08;100157.03;;;4.78;61.54
82575;BME280;72260;65.870;13.210;2024-03-02T01:47:33;100162.75;;;4.86;61.16
82575;BME280;72260;65.870;13.210;2024-03-02T01:49:59;100167.09;;;4.87;61.07
82575;BME280;72260;65.870;13.210;2024-03-02T01:52:26;100170.38;;;4.90;61.25
82575;BME280;72260;65.870;13.210;2024-03-02T01:54:51;100177.19;;;4.76;61.68
82575;BME280;72260;65.870;13.210;2024-03-02T01:57:17;100178.97;;;4.75;61.93
82575;BME280;72260;65.870;13.210;2024-03-02T01:59:43;100188.00;;;4.68;61.88
82575;BME280;72260;65.870;13.210;2024-03-02T02:02:08;100195.00;;;4.67;61.80
82575;BME280;72260;65.870;13.210;2024-03-02T02:04:34;100197.03;;;4.61;62.28
82575;BME280;72260;65.870;13.210;2024-03-02T02:07:00;100205.94;;;4.57;61.88
82575;BME280;72260;65.870;13.210;2024-03-02T02:09:25;100215.34;;;4.42;62.97
82575;BME280;72260;65.870;13.210;2024-03-02T02:11:51;100218.09;;;4.39;62.83
82575;BME280;72260;65.870;13.210;2024-03-02T02:14:17;100216.19;;;4.43;62.46
82575;BME280;72260;65.870;13.210;2024-03-02T02:16:42;100220.38;;;4.47;62.23
82575;BME280;72260;65.870;13.210;2024-03-02T02:19:08;100207.22;;;4.48;62.06
82575;BME280;72260;65.870;13.210;2024-03-02T02:21:34;100210.69;;;4.49;62.64
82575;BME280;72260;65.870;13.210;2024-03-02T02:24:00;100213.31;;;4.49;61.90
82575;BME280;72260;65.870;13.210;2024-03-02T02:26:28;100226.34;;;4.50;61.50
82575;BME280;72260;65.870;13.210;2024-03-02T02:28:53;100232.56;;;4.48;61.62
82575;BME280;72260;65.870;13.210;2024-03-02T02:31:19;100232.75;;;4.43;62.37
82575;BME280;72260;65.870;13.210;2024-03-02T02:33:44;100227.66;;;4.40;62.49
82575;BME280;72260;65.870;13.210;2024-03-02T02:36:10;100230.84;;;4.47;61.99
82575;BME280;72260;65.870;13.210;2024-03-02T02:38:39;100228.09;;;4.50;61.51
82575;BME280;72260;65.870;13.210;2024-03-02T02:41:05;100227.03;;;4.33;61.90
82575;BME280;72260;65.870;13.210;2024-03-02T02:43:31;100221.56;;;4.19;62.33
82575;BME280;72260;65.870;13.210;2024-03-02T02:45:57;100232.16;;;4.16;62.45
82575;BME280;72260;65.870;13.210;2024-03-02T02:48:22;100249.69;;;4.14;61.82
82575;BME280;72260;65.870;13.210;2024-03-02T02:50:48;100241.38;;;4.25;60.94
82575;BME280;72260;65.870;13.210;2024-03-02T02:53:13;100237.13;;;4.43;63.36
82575;BME280;72260;65.870;13.210;2024-03-02T02:55:42;100246.63;;;4.45;61.61
82575;BME280;72260;65.870;13.210;2024-03-02T02:58:12;100247.06;;;4.34;61.48
82575;BME280;72260;65.870;13.210;2024-03-02T03:00:38;100245.69;;;4.26;61.70
82575;BME280;72260;65.870;13.210;2024-03-02T03:03:03;100246.75;;;4.22;61.43
82575;BME280;72260;65.870;13.210;2024-03-02T03:05:29;100229.34;;;4.21;61.15
82575;BME280;72260;65.870;13.210;2024-03-02T03:07:55;100236.78;;;4.30;60.90
82575;BME280;72260;65.870;13.210;2024-03-02T03:10:20;100226.94;;;4.16;61.56
82575;BME280;72260;65.870;13.210;2024-03-02T03:12:48;100240.31;;;4.09;61.67
82575;BME280;72260;65.870;13.210;2024-03-02T03:15:14;100251.63;;;4.09;61.50
82575;BME280;72260;65.870;13.210;2024-03-02T03:17:41;100255.28;;;4.05;61.19
82575;BME280;72260;65.870;13.210;2024-03-02T03:20:07;100254.00;;;4.15;61.09
82575;BME280;72260;65.870;13.210;2024-03-02T03:22:37;100266.31;;;4.13;61.08
82575;BME280;72260;65.870;13.210;2024-03-02T03:25:03;100275.97;;;4.11;61.71
82575;BME280;72260;65.870;13.210;2024-03-02T03:27:29;100270.75;;;4.11;61.54
82575;BME280;72260;65.870;13.210;2024-03-02T03:29:54;100267.59;;;4.23;64.69
82575;BME280;72260;65.870;13.210;2024-03-02T03:32:20;100271.22;;;4.21;61.40
82575;BME280;72260;65.870;13.210;2024-03-02T03:34:45;100269.03;;;4.10;61.74
82575;BME280;72260;65.870;13.210;2024-03-02T03:37:13;100266.59;;;4.05;61.80
82575;BME280;72260;65.870;13.210;2024-03-02T03:39:38;100271.84;;;4.05;61.81
82575;BME280;72260;65.870;13.210;2024-03-02T03:42:04;100278.84;;;4.05;62.17
82575;BME280;72260;65.870;13.210;2024-03-02T03:44:29;100273.19;;;3.94;62.48
82575;BME280;72260;65.870;13.210;2024-03-02T03:46:55;100283.59;;;3.95;62.57
82575;BME280;72260;65.870;13.210;2024-03-02T03:49:20;100292.09;;;4.00;62.41
82575;BME280;72260;65.870;13.210;2024-03-02T03:51:46;100288.50;;;4.03;62.61
82575;BME280;72260;65.870;13.210;2024-03-02T03:54:11;100288.88;;;4.16;61.44
82575;BME280;72260;65.870;13.210;2024-03-02T03:56:37;100283.53;;;4.19;61.78
82575;BME280;72260;65.870;13.210;2024-03-02T03:59:03;100281.75;;;4.19;62.12
82575;BME280;72260;65.870;13.210;2024-03-02T04:01:30;100285.22;;;4.20;61.65
82575;BME280;72260;65.870;13.210;2024-03-02T04:03:56;100291.69;;;4.11;62.00
82575;BME280;72260;65.870;13.210;2024-03-02T04:06:22;100290.44;;;4.20;64.16
82575;BME280;72260;65.870;13.210;2024-03-02T04:08:48;100280.97;;;4.37;62.20
82575;BME280;72260;65.870;13.210;2024-03-02T04:11:13;100290.66;;;4.35;61.63
82575;BME280;72260;65.870;13.210;2024-03-02T04:13:39;100281.75;;;4.39;62.31
82575;BME280;72260;65.870;13.210;2024-03-02T04:16:05;100304.28;;;4.44;61.90
82575;BME280;72260;65.870;13.210;2024-03-02T04:18:30;100307.06;;;4.39;62.22
82575;BME280;72260;65.870;13.210;2024-03-02T04:20:57;100304.91;;;4.28;62.62
82575;BME280;72260;65.870;13.210;2024-03-02T04:23:25;100311.84;;;4.29;62.47
82575;BME280;72260;65.870;13.210;2024-03-02T04:25:50;100324.25;;;4.24;62.63
82575;BME280;72260;65.870;13.210;2024-03-02T04:28:16;100311.81;;;4.09;62.58
82575;BME280;72260;65.870;13.210;2024-03-02T04:30:41;100317.59;;;3.95;62.99
82575;BME280;72260;65.870;13.210;2024-03-02T04:33:07;100321.97;;;3.95;63.33
82575;BME280;72260;65.870;13.210;2024-03-02T04:35:38;100331.69;;;3.91;63.33
82575;BME280;72260;65.870;13.210;2024-03-02T04:38:03;100335.38;;;3.87;64.07
82575;BME280;72260;65.870;13.210;2024-03-02T04:40:29;100348.25;;;3.92;63.45
82575;BME280;72260;65.870;13.210;2024-03-02T04:42:54;100333.59;;;3.88;63.24
82575;BME280;72260;65.870;13.210;2024-03-02T04:45:20;100345.69;;;3.90;62.64
82575;BME280;72260;65.870;13.210;2024-03-02T04:47:45;100361.38;;;3.90;63.13
82575;BME280;72260;65.870;13.210;2024-03-02T04:50:11;100361.19;;;3.73;63.51
82575;BME280;72260;65.870;13.210;2024-03-02T04:52:36;100357.09;;;3.66;63.67
82575;BME280;72260;65.870;13.210;2024-03-02T04:55:03;100361.63;;;3.61;64.18
82575;BME280;72260;65.870;13.210;2024-03-02T04:57:47;100366.06;;;3.59;64.35
82575;BME280;72260;65.870;13.210;2024-03-02T05:00:13;100356.31;;;3.41;64.93
82575;BME280;72260;65.870;13.210;2024-03-02T05:02:39;100361.94;;;3.30;65.44
82575;BME280;72260;65.870;13.210;2024-03-02T05:05:04;100365.53;;;3.02;66.71
82575;BME280;72260;65.870;13.210;2024-03-02T05:07:30;100374.06;;;2.83;67.33
82575;BME280;72260;65.870;13.210;2024-03-02T05:09:55;100383.56;;;2.85;67.90
82575;BME280;72260;65.870;13.210;2024-03-02T05:12:21;100375.22;;;2.74;68.42
82575;BME280;72260;65.870;13.210;2024-03-02T05:15:15;100376.22;;;2.45;69.36
82575;BME280;72260;65.870;13.210;2024-03-02T05:17:41;100395.38;;;2.44;69.86
82575;BME280;72260;65.870;13.210;2024-03-02T05:20:10;100399.03;;;2.39;70.12
82575;BME280;72260;65.870;13.210;2024-03-02T05:22:37;100399.03;;;2.39;69.70
82575;BME280;72260;65.870;13.210;2024-03-02T05:25:04;100402.88;;;2.55;69.03
82575;BME280;72260;65.870;13.210;2024-03-02T05:27:30;100410.84;;;2.50;69.30
82575;BME280;72260;65.870;13.210;2024-03-02T05:29:56;100402.91;;;2.53;69.04
82575;BME280;72260;65.870;13.210;2024-03-02T05:32:21;100412.41;;;2.56;68.94
82575;BME280;72260;65.870;13.210;2024-03-02T05:34:47;100422.38;;;2.69;68.16
82575;BME280;72260;65.870;13.210;2024-03-02T05:37:12;100416.53;;;2.61;68.72
82575;BME280;72260;65.870;13.210;2024-03-02T05:39:38;100419.16;;;2.35;69.18
82575;BME280;72260;65.870;13.210;2024-03-02T05:42:04;100440.81;;;2.09;71.64
82575;BME280;72260;65.870;13.210;2024-03-02T05:44:29;100440.44;;;1.93;71.40
82575;BME280;72260;65.870;13.210;2024-03-02T05:46:55;100435.66;;;2.08;71.08
82575;BME280;72260;65.870;13.210;2024-03-02T05:49:21;100443.44;;;2.09;71.04
82575;BME280;72260;65.870;13.210;2024-03-02T05:51:47;100465.91;;;2.13;70.71
82575;BME280;72260;65.870;13.210;2024-03-02T05:54:12;100472.78;;;2.16;71.11
82575;BME280;72260;65.870;13.210;2024-03-02T05:56:38;100482.84;;;2.28;70.79
82575;BME280;72260;65.870;13.210;2024-03-02T05:59:03;100487.91;;;2.32;70.76
82575;BME280;72260;65.870;13.210;2024-03-02T06:01:35;100499.06;;;2.38;70.50
82575;BME280;72260;65.870;13.210;2024-03-02T06:04:00;100503.25;;;2.43;70.70
82575;BME280;72260;65.870;13.210;2024-03-02T06:06:26;100505.69;;;2.49;71.04
82575;BME280;72260;65.870;13.210;2024-03-02T06:08:52;100516.63;;;2.60;70.43
82575;BME280;72260;65.870;13.210;2024-03-02T06:11:19;100508.53;;;2.42;71.03
82575;BME280;72260;65.870;13.210;2024-03-02T06:13:44;100507.56;;;2.44;71.27
82575;BME280;72260;65.870;13.210;2024-03-02T06:16:10;100512.53;;;2.53;70.79
82575;BME280;72260;65.870;13.210;2024-03-02T06:18:36;100516.75;;;2.57;71.42
82575;BME280;72260;65.870;13.210;2024-03-02T06:21:01;100542.91;;;2.82;71.07
82575;BME280;72260;65.870;13.210;2024-03-02T06:23:27;100542.75;;;2.88;70.43
82575;BME280;72260;65.870;13.210;2024-03-02T06:25:53;100538.94;;;2.97;70.27
82575;BME280;72260;65.870;13.210;2024-03-02T06:28:18;100553.94;;;3.18;69.59
82575;BME280;72260;65.870;13.210;2024-03-02T06:30:44;100555.66;;;3.19;69.12
82575;BME280;72260;65.870;13.210;2024-03-02T06:33:10;100561.00;;;3.41;74.68
82575;BME280;72260;65.870;13.210;2024-03-02T06:35:36;100561.72;;;3.46;69.66
82575;BME280;72260;65.870;13.210;2024-03-02T06:38:02;100575.72;;;3.44;69.21
82575;BME280;72260;65.870;13.210;2024-03-02T06:40:27;100563.97;;;3.30;69.50
82575;BME280;72260;65.870;13.210;2024-03-02T06:42:53;100593.28;;;3.40;68.15
82575;BME280;72260;65.870;13.210;2024-03-02T06:45:18;100563.44;;;3.21;68.51
82575;BME280;72260;65.870;13.210;2024-03-02T06:47:44;100572.19;;;3.20;68.75
82575;BME280;72260;65.870;13.210;2024-03-02T06:50:09;100570.19;;;3.26;69.14
82575;BME280;72260;65.870;13.210;2024-03-02T06:52:35;100567.75;;;3.22;68.98
82575;BME280;72260;65.870;13.210;2024-03-02T06:55:02;100561.78;;;3.18;68.61
82575;BME280;72260;65.870;13.210;2024-03-02T06:57:27;100572.81;;;3.26;68.91
82575;BME280;72260;65.870;13.210;2024-03-02T06:59:53;100569.00;;;3.36;68.23
82575;BME280;72260;65.870;13.210;2024-03-02T07:02:22;100577.88;;;3.31;68.69
82575;BME280;72260;65.870;13.210;2024-03-02T07:04:48;100583.22;;;3.28;69.70
82575;BME280;72260;65.870;13.210;2024-03-02T07:07:14;100572.47;;;3.11;69.73
82575;BME280;72260;65.870;13.210;2024-03-02T07:09:39;100569.44;;;3.24;69.76
82575;BME280;72260;65.870;13.210;2024-03-02T07:12:05;100564.72;;;3.34;68.85
82575;BME280;72260;65.870;13.210;2024-03-02T07:14:30;100572.13;;;3.48;68.53
82575;BME280;72260;65.870;13.210;2024-03-02T07:17:14;100589.50;;;3.49;69.27
82575;BME280;72260;65.870;13.210;2024-03-02T07:19:40;100599.84;;;3.52;69.00
82575;BME280;72260;65.870;13.210;2024-03-02T07:22:06;100593.44;;;3.60;68.84
82575;BME280;72260;65.870;13.210;2024-03-02T07:24:42;100593.97;;;3.45;68.93
82575;BME280;72260;65.870;13.210;2024-03-02T07:27:11;100612.13;;;3.50;69.84
82575;BME280;72260;65.870;13.210;2024-03-02T07:29:38;100606.31;;;3.66;71.43
82575;BME280;72260;65.870;13.210;2024-03-02T07:32:04;100615.88;;;3.67;70.53
82575;BME280;72260;65.870;13.210;2024-03-02T07:34:30;100609.63;;;3.47;70.84
82575;BME280;72260;65.870;13.210;2024-03-02T07:36:55;100625.78;;;3.31;70.21
82575;BME280;72260;65.870;13.210;2024-03-02T07:39:21;100629.19;;;3.33;70.59
82575;BME280;72260;65.870;13.210;2024-03-02T07:41:47;100614.03;;;3.45;69.78
82575;BME280;72260;65.870;13.210;2024-03-02T07:44:12;100618.88;;;3.57;69.78
82575;BME280;72260;65.870;13.210;2024-03-02T07:46:42;100603.69;;;3.66;70.48
82575;BME280;72260;65.870;13.210;2024-03-02T07:49:08;100597.81;;;3.60;71.02
82575;BME280;72260;65.870;13.210;2024-03-02T07:51:34;100611.19;;;3.77;69.42
82575;BME280;72260;65.870;13.210;2024-03-02T07:53:59;100611.78;;;3.85;68.66
82575;BME280;72260;65.870;13.210;2024-03-02T07:56:25;100615.25;;;3.86;68.54
82575;BME280;72260;65.870;13.210;2024-03-02T07:58:50;100627.19;;;3.93;67.77
82575;BME280;72260;65.870;13.210;2024-03-02T08:01:16;100640.00;;;4.00;67.52
82575;BME280;72260;65.870;13.210;2024-03-02T08:03:43;100628.75;;;3.98;67.26
82575;BME280;72260;65.870;13.210;2024-03-02T08:06:13;100628.78;;;3.97;67.19
82575;BME280;72260;65.870;13.210;2024-03-02T08:08:40;100633.75;;;4.04;67.22
82575;BME280;72260;65.870;13.210;2024-03-02T08:11:06;100620.78;;;4.01;66.63
82575;BME280;72260;65.870;13.210;2024-03-02T08:13:31;100619.88;;;4.02;67.17
82575;BME280;72260;65.870;13.210;2024-03-02T08:15:57;100621.66;;;4.02;67.01
82575;BME280;72260;65.870;13.210;2024-03-02T08:18:23;100615.78;;;4.20;67.89
82575;BME280;72260;65.870;13.210;2024-03-02T08:20:48;100630.78;;;4.38;67.52
82575;BME280;72260;65.870;13.210;2024-03-02T08:23:14;100626.34;;;4.41;67.53
82575;BME280;72260;65.870;13.210;2024-03-02T08:25:39;100644.63;;;4.42;66.91
82575;BME280;72260;65.870;13.210;2024-03-02T08:28:05;100655.22;;;4.62;66.17
82575;BME280;72260;65.870;13.210;2024-03-02T08:30:31;100650.25;;;4.78;65.82
82575;BME280;72260;65.870;13.210;2024-03-02T08:32:56;100672.22;;;4.97;64.35
82575;BME280;72260;65.870;13.210;2024-03-02T08:35:22;100669.69;;;5.18;64.88
82575;BME280;72260;65.870;13.210;2024-03-02T08:37:48;100677.97;;;5.29;64.24
82575;BME280;72260;65.870;13.210;2024-03-02T08:40:14;100688.47;;;5.51;62.95
82575;BME280;72260;65.870;13.210;2024-03-02T08:42:39;100678.56;;;5.57;63.30
82575;BME280;72260;65.870;13.210;2024-03-02T08:45:06;100697.47;;;5.65;62.01
82575;BME280;72260;65.870;13.210;2024-03-02T08:47:32;100713.97;;;5.69;61.52
82575;BME280;72260;65.870;13.210;2024-03-02T08:50:00;100727.63;;;5.77;61.20
82575;BME280;72260;65.870;13.210;2024-03-02T08:52:26;100743.31;;;5.79;61.02
82575;BME280;72260;65.870;13.210;2024-03-02T08:54:52;100737.31;;;5.75;61.15
82575;BME280;72260;65.870;13.210;2024-03-02T08:57:18;100740.34;;;5.86;60.92
82575;BME280;72260;65.870;13.210;2024-03-02T08:59:44;100736.34;;;5.78;60.99
82575;BME280;72260;65.870;13.210;2024-03-02T09:02:10;100731.69;;;5.62;61.27
82575;BME280;72260;65.870;13.210;2024-03-02T09:04:37;100724.19;;;5.53;62.01
82575;BME280;72260;65.870;13.210;2024-03-02T09:07:02;100726.69;;;5.56;62.27
82575;BME280;72260;65.870;13.210;2024-03-02T09:09:28;100727.56;;;5.57;62.46
82575;BME280;72260;65.870;13.210;2024-03-02T09:11:54;100717.84;;;5.59;63.26
82575;BME280;72260;65.870;13.210;2024-03-02T09:14:23;100734.09;;;5.90;61.47
82575;BME280;72260;65.870;13.210;2024-03-02T09:16:49;100733.34;;;6.09;61.47
82575;BME280;72260;65.870;13.210;2024-03-02T09:19:14;100737.34;;;6.37;60.64
82575;BME280;72260;65.870;13.210;2024-03-02T09:21:42;100728.28;;;6.65;59.44
82575;BME280;72260;65.870;13.210;2024-03-02T09:24:07;100743.38;;;6.80;58.74
82575;BME280;72260;65.870;13.210;2024-03-02T09:26:33;100744.03;;;7.04;59.11
82575;BME280;72260;65.870;13.210;2024-03-02T09:28:58;100751.34;;;7.16;58.07
82575;BME280;72260;65.870;13.210;2024-03-02T09:31:24;100752.50;;;7.11;57.89
82575;BME280;72260;65.870;13.210;2024-03-02T09:33:52;100739.22;;;7.14;57.17
82575;BME280;72260;65.870;13.210;2024-03-02T09:36:21;100755.84;;;7.33;56.36
82575;BME280;72260;65.870;13.210;2024-03-02T09:38:47;100743.31;;;7.19;57.68
82575;BME280;72260;65.870;13.210;2024-03-02T09:41:14;100749.22;;;7.43;57.92
82575;BME280;72260;65.870;13.210;2024-03-02T09:43:40;100750.06;;;7.62;55.62
82575;BME280;72260;65.870;13.210;2024-03-02T09:46:15;100755.31;;;7.62;55.64
82575;BME280;72260;65.870;13.210;2024-03-02T09:48:41;100745.84;;;7.58;55.36
82575;BME280;72260;65.870;13.210;2024-03-02T09:51:07;100758.53;;;7.86;54.87
82575;BME280;72260;65.870;13.210;2024-03-02T09:53:37;100756.81;;;7.85;55.56
82575;BME280;72260;65.870;13.210;2024-03-02T09:56:05;100739.88;;;7.73;55.73
82575;BME280;72260;65.870;13.210;2024-03-02T09:58:31;100758.34;;;8.08;55.27
82575;BME280;72260;65.870;13.210;2024-03-02T10:00:57;100756.94;;;8.18;53.71
82575;BME280;72260;65.870;13.210;2024-03-02T10:03:26;100753.44;;;8.36;52.61
82575;BME280;72260;65.870;13.210;2024-03-02T10:05:52;100761.31;;;8.54;52.43
82575;BME280;72260;65.870;13.210;2024-03-02T10:08:18;100754.56;;;8.48;52.62
82575;BME280;72260;65.870;13.210;2024-03-02T10:10:43;100764.25;;;8.65;51.82
82575;BME280;72260;65.870;13.210;2024-03-02T10:13:10;100756.59;;;8.60;52.02
82575;BME280;72260;65.870;13.210;2024-03-02T10:15:38;100744.81;;;8.50;52.10
82575;BME280;72260;65.870;13.210;2024-03-02T10:18:10;100768.84;;;8.61;52.18
82575;BME280;72260;65.870;13.210;2024-03-02T10:20:41;100753.19;;;8.58;51.89
82575;BME280;72260;65.870;13.210;2024-03-02T10:23:18;100746.75;;;8.64;50.98
82575;BME280;72260;65.870;13.210;2024-03-02T10:25:44;100759.69;;;8.68;51.66
82575;BME280;72260;65.870;13.210;2024-03-02T10:28:10;100752.13;;;8.78;51.36
82575;BME280;72260;65.870;13.210;2024-03-02T10:30:36;100757.22;;;8.98;50.82
82575;BME280;72260;65.870;13.210;2024-03-02T10:33:02;100760.13;;;9.09;51.74
82575;BME280;72260;65.870;13.210;2024-03-02T10:35:28;100758.50;;;9.07;50.73
82575;BME280;72260;65.870;13.210;2024-03-02T10:37:54;100760.97;;;9.10;50.91
82575;BME280;72260;65.870;13.210;2024-03-02T10:40:23;100765.50;;;9.24;50.94
82575;BME280;72260;65.870;13.210;2024-03-02T10:42:50;100768.59;;;9.32;49.90
82575;BME280;72260;65.870;13.210;2024-03-02T10:45:23;100766.34;;;9.24;50.90
82575;BME280;72260;65.870;13.210;2024-03-02T10:47:50;100757.13;;;9.00;48.58
82575;BME280;72260;65.870;13.210;2024-03-02T10:50:16;100769.63;;;8.96;50.10
82575;BME280;72260;65.870;13.210;2024-03-02T10:52:41;100766.44;;;9.07;50.95
82575;BME280;72260;65.870;13.210;2024-03-02T10:55:08;100780.31;;;9.26;50.55
82575;BME280;72260;65.870;13.210;2024-03-02T10:57:45;100774.19;;;9.26;49.02
82575;BME280;72260;65.870;13.210;2024-03-02T11:00:15;100775.69;;;9.14;49.94
82575;BME280;72260;65.870;13.210;2024-03-02T11:02:51;100769.66;;;9.12;49.81
82575;BME280;72260;65.870;13.210;2024-03-02T11:05:27;100775.97;;;9.25;50.06
82575;BME280;72260;65.870;13.210;2024-03-02T11:08:00;100772.25;;;9.29;50.49
82575;BME280;72260;65.870;13.210;2024-03-02T11:10:41;100768.09;;;9.41;50.98
82575;BME280;72260;65.870;13.210;2024-03-02T11:13:09;100780.94;;;9.47;50.26
82575;BME280;72260;65.870;13.210;2024-03-02T11:15:36;100750.81;;;9.35;50.40
82575;BME280;72260;65.870;13.210;2024-03-02T11:18:05;100771.81;;;9.53;50.14
82575;BME280;72260;65.870;13.210;2024-03-02T11:20:38;100751.72;;;9.50;49.13
82575;BME280;72260;65.870;13.210;2024-03-02T11:23:09;100751.63;;;9.52;49.75
82575;BME280;72260;65.870;13.210;2024-03-02T11:25:35;100765.78;;;9.51;49.85
82575;BME280;72260;65.870;13.210;2024-03-02T11:28:04;100753.16;;;9.08;49.72
82575;BME280;72260;65.870;13.210;2024-03-02T11:33:03;100741.56;;;8.78;50.61
82575;BME280;72260;65.870;13.210;2024-03-02T11:35:43;100779.81;;;8.87;49.89
82575;BME280;72260;65.870;13.210;2024-03-02T11:38:12;100772.72;;;9.04;49.59
82575;BME280;72260;65.870;13.210;2024-03-02T11:40:41;100764.03;;;9.18;50.74
82575;BME280;72260;65.870;13.210;2024-03-02T11:43:07;100764.91;;;9.19;50.10
82575;BME280;72260;65.870;13.210;2024-03-02T11:45:36;100740.53;;;9.14;50.47
82575;BME280;72260;65.870;13.210;2024-03-02T11:48:08;100754.94;;;9.24;50.35
82575;BME280;72260;65.870;13.210;2024-03-02T11:50:46;100750.56;;;8.91;49.21
82575;BME280;72260;65.870;13.210;2024-03-02T11:53:12;100744.78;;;9.00;50.42
82575;BME280;72260;65.870;13.210;2024-03-02T11:55:38;100727.50;;;8.95;49.97
82575;BME280;72260;65.870;13.210;2024-03-02T11:58:12;100737.22;;;8.94;50.35
82575;BME280;72260;65.870;13.210;2024-03-02T12:00:38;100753.81;;;8.96;49.46
82575;BME280;72260;65.870;13.210;2024-03-02T12:03:05;100752.31;;;9.08;51.44
82575;BME280;72260;65.870;13.210;2024-03-02T12:05:34;100757.59;;;8.75;50.98
82575;BME280;72260;65.870;13.210;2024-03-02T12:08:07;100756.81;;;8.73;51.74
82575;BME280;72260;65.870;13.210;2024-03-02T12:10:34;100725.44;;;8.84;51.19
82575;BME280;72260;65.870;13.210;2024-03-02T12:13:01;100757.50;;;9.09;52.24
82575;BME280;72260;65.870;13.210;2024-03-02T12:15:29;100727.09;;;9.02;50.90
82575;BME280;72260;65.870;13.210;2024-03-02T12:17:59;100743.63;;;8.73;53.18
82575;BME280;72260;65.870;13.210;2024-03-02T12:20:26;100743.94;;;8.67;54.70
82575;BME280;72260;65.870;13.210;2024-03-02T12:22:53;100739.22;;;8.56;54.36
82575;BME280;72260;65.870;13.210;2024-03-02T12:25:20;100745.81;;;8.30;54.85
82575;BME280;72260;65.870;13.210;2024-03-02T12:27:47;100768.34;;;8.19;54.60
82575;BME280;72260;65.870;13.210;2024-03-02T12:30:16;100757.19;;;8.31;55.36
82575;BME280;72260;65.870;13.210;2024-03-02T12:32:41;100777.13;;;8.54;52.75
82575;BME280;72260;65.870;13.210;2024-03-02T12:35:08;100747.75;;;8.61;51.39
82575;BME280;72260;65.870;13.210;2024-03-02T12:40:12;100772.03;;;9.01;52.58
82575;BME280;72260;65.870;13.210;2024-03-02T12:42:41;100765.66;;;9.05;51.48
82575;BME280;72260;65.870;13.210;2024-03-02T12:45:08;100771.63;;;8.75;51.25
82575;BME280;72260;65.870;13.210;2024-03-02T12:47:34;100734.69;;;8.43;51.85
82575;BME280;72260;65.870;13.210;2024-03-02T12:50:10;100751.94;;;8.65;53.86
82575;BME280;72260;65.870;13.210;2024-03-02T12:52:36;100751.69;;;8.53;53.30
82575;BME280;72260;65.870;13.210;2024-03-02T12:55:05;100780.97;;;8.81;53.07